Time;durP1;ratioP1;P1;durP2;ratioP2;P2;SDS_P1;SDS_P2;PMS_P1;PMS_P2;Temp;Humidity;BMP_temperature;BMP_pressure;BME280_temperature;BME280_humidity;BME280_pressure;Samples;Min_cycle;Max_cycle;Signal;HPM_P1;HPM_P2
2024/03/26 00:01:14;;;;;;;9.25;2.78;;;;;;;9.32;55.84;99686.63;5247914;28;20043;-79
2024/03/26 00:03:46;;;;;;;5.85;2.15;;;;;;;9.30;55.99;99682.50;5247251;28;20041;-80
2024/03/26 00:06:18;;;;;;;6.68;2.33;;;;;;;9.33;56.71;99680.41;5250274;28;20037;-80
2024/03/26 00:08:50;;;;;;;5.38;1.70;;;;;;;9.32;55.51;99681.41;5247894;28;20039;-80
2024/03/26 00:11:24;;;;;;;10.30;2.63;;;;;;;9.28;56.04;99667.00;5250343;28;20482;-80
2024/03/26 00:13:56;;;;;;;5.45;2.20;;;;;;;9.31;55.48;99666.66;5248174;28;20039;-80
2024/03/26 00:16:28;;;;;;;7.55;2.17;;;;;;;9.44;54.40;99666.28;5249868;28;20032;-81
2024/03/26 00:19:00;;;;;;;6.60;2.40;;;;;;;9.35;55.70;99661.94;5248391;28;20582;-80
2024/03/26 00:21:32;;;;;;;8.52;2.45;;;;;;;9.36;54.87;99656.59;5253777;28;20033;-79
2024/03/26 00:24:04;;;;;;;5.60;2.10;;;;;;;9.32;55.54;99655.25;5253762;28;20123;-80
2024/03/26 00:26:36;;;;;;;5.17;1.90;;;;;;;9.33;55.74;99643.00;5256877;28;20029;-81
2024/03/26 00:29:08;;;;;;;5.78;1.80;;;;;;;9.31;56.16;99640.53;5257141;28;20616;-80
2024/03/26 00:31:40;;;;;;;6.65;1.92;;;;;;;9.26;56.18;99638.38;5238834;28;20146;-80
2024/03/26 00:34:12;;;;;;;6.07;2.22;;;;;;;9.24;56.22;99632.50;5256118;28;20037;-81
2024/03/26 00:36:44;;;;;;;8.30;2.25;;;;;;;9.18;56.12;99629.66;5255811;28;20132;-80
2024/03/26 00:39:15;;;;;;;6.15;2.10;;;;;;;9.16;56.60;99635.00;5255343;28;20560;-80
2024/03/26 00:41:47;;;;;;;7.05;2.40;;;;;;;9.13;56.08;99630.13;5256031;28;20029;-80
2024/03/26 00:44:19;;;;;;;7.22;2.20;;;;;;;9.05;57.56;99616.13;5256060;28;20037;-80
2024/03/26 00:46:51;;;;;;;5.32;2.10;;;;;;;9.06;56.61;99612.56;5253807;28;20033;-80
2024/03/26 00:49:23;;;;;;;5.55;2.03;;;;;;;9.01;56.72;99608.59;5253531;28;20104;-80
2024/03/26 00:51:55;;;;;;;7.68;2.03;;;;;;;9.00;56.49;99608.75;5236647;28;20040;-80
2024/03/26 00:54:27;;;;;;;6.20;1.90;;;;;;;8.97;56.80;99596.81;5257069;28;20362;-80
2024/03/26 00:56:59;;;;;;;6.47;2.10;;;;;;;8.95;56.87;99600.56;5255651;28;20100;-80
2024/03/26 00:59:31;;;;;;;7.25;2.13;;;;;;;8.89;57.19;99603.75;5249256;28;20092;-80
2024/03/26 01:02:03;;;;;;;7.03;2.20;;;;;;;8.79;57.55;99590.78;5250172;28;20063;-80
2024/03/26 01:04:35;;;;;;;7.88;1.95;;;;;;;8.82;56.28;99600.91;5253462;28;20039;-80
2024/03/26 01:07:07;;;;;;;4.38;1.75;;;;;;;8.83;57.86;99597.34;5255284;28;20024;-80
2024/03/26 01:09:38;;;;;;;6.07;2.20;;;;;;;8.81;59.82;99583.63;5255012;28;20047;-80
2024/03/26 01:12:10;;;;;;;9.93;1.92;;;;;;;8.81;56.81;99594.06;5253489;28;20028;-80
2024/03/26 01:14:42;;;;;;;4.03;1.63;;;;;;;8.75;58.60;99576.38;5256027;28;20140;-80
2024/03/26 01:17:14;;;;;;;3.60;1.98;;;;;;;8.77;56.96;99579.66;5254885;28;20112;-80
2024/03/26 01:19:46;;;;;;;6.55;1.95;;;;;;;8.72;55.88;99567.06;5253325;28;20098;-80
2024/03/26 01:22:18;;;;;;;5.90;1.80;;;;;;;8.74;56.61;99570.31;5254675;28;20372;-80
2024/03/26 01:24:50;;;;;;;6.65;2.13;;;;;;;8.71;57.76;99568.03;5257770;28;20100;-81
2024/03/26 01:27:22;;;;;;;5.22;1.60;;;;;;;8.69;57.61;99567.34;5253412;28;20059;-80
2024/03/26 01:29:53;;;;;;;6.63;2.10;;;;;;;8.67;56.99;99556.22;5245807;28;20033;-79
2024/03/26 01:32:26;;;;;;;5.40;2.03;;;;;;;8.61;57.05;99554.22;5246007;28;20043;-79
2024/03/26 01:34:57;;;;;;;4.60;1.85;;;;;;;8.60;57.13;99549.97;5246392;28;20047;-81
2024/03/26 01:37:29;;;;;;;6.88;2.60;;;;;;;8.61;57.46;99542.97;5246208;28;21213;-80
2024/03/26 01:40:01;;;;;;;7.32;2.35;;;;;;;8.60;57.92;99531.72;5243426;28;20437;-80
2024/03/26 01:42:33;;;;;;;4.32;1.95;;;;;;;8.62;58.15;99542.00;5246551;28;20033;-79
2024/03/26 01:45:06;;;;;;;6.60;2.38;;;;;;;8.59;58.21;99543.09;5227545;28;20052;-79
2024/03/26 01:47:38;;;;;;;;;;;;;;;9.36;55.10;99531.13;5247358;28;20029;-79
2024/03/26 01:50:12;;;;;;;4.10;1.60;;;;;;;8.70;57.37;99529.00;5245018;28;19917;-80
2024/03/26 01:52:45;;;;;;;7.95;2.42;;;;;;;8.45;58.09;99510.53;5246773;28;20059;-79
2024/03/26 01:55:17;;;;;;;5.53;2.22;;;;;;;8.60;57.33;99523.88;5246380;28;20044;-80
2024/03/26 01:57:49;;;;;;;7.17;2.83;;;;;;;8.64;56.81;99513.97;5245095;28;20040;-80
2024/03/26 02:00:24;;;;;;;5.85;2.05;;;;;;;8.56;58.75;99513.88;5244530;28;20091;-79
2024/03/26 02:02:57;;;;;;;5.82;2.00;;;;;;;8.52;57.90;99506.34;5243519;28;20040;-79
2024/03/26 02:05:29;;;;;;;;;;;;;;;9.30;56.15;99508.22;5245685;28;20406;-79
2024/03/26 02:08:01;;;;;;;6.97;2.13;;;;;;;8.51;57.62;99490.81;5244828;28;19916;-79
2024/03/26 02:10:33;;;;;;;5.53;1.67;;;;;;;8.56;58.85;99498.19;5245140;28;20768;-79
2024/03/26 02:13:05;;;;;;;6.18;1.80;;;;;;;8.51;56.60;99493.44;5245893;28;20044;-79
2024/03/26 02:15:37;;;;;;;5.97;1.90;;;;;;;8.50;56.15;99491.81;5245212;28;20025;-80
2024/03/26 02:18:09;;;;;;;5.65;2.08;;;;;;;8.49;56.62;99485.78;5243463;28;20587;-79
2024/03/26 02:20:41;;;;;;;6.72;1.73;;;;;;;8.45;56.40;99467.94;5245294;28;20048;-79
2024/03/26 02:23:13;;;;;;;5.53;1.70;;;;;;;8.46;57.82;99470.41;5246139;28;20036;-80
2024/03/26 02:25:45;;;;;;;7.78;1.92;;;;;;;8.55;55.97;99475.69;5245414;28;20590;-79
2024/03/26 02:28:17;;;;;;;6.22;1.88;;;;;;;8.45;56.57;99467.94;5242940;28;20039;-79
2024/03/26 02:30:48;;;;;;;5.20;1.83;;;;;;;8.46;57.17;99466.97;5244238;28;20036;-79
2024/03/26 02:33:20;;;;;;;5.40;1.60;;;;;;;8.35;57.14;99460.16;5249355;28;20031;-79
2024/03/26 02:35:52;;;;;;;5.28;1.70;;;;;;;8.46;57.56;99467.78;5249914;28;20402;-80
2024/03/26 02:38:24;;;;;;;6.47;1.88;;;;;;;8.50;56.54;99461.28;5246381;28;20025;-80
2024/03/26 02:40:56;;;;;;;5.18;1.95;;;;;;;8.45;56.87;99457.50;5230284;28;20036;-80
2024/03/26 02:43:28;;;;;;;6.72;1.95;;;;;;;8.43;57.23;99455.03;5247182;28;20057;-79
2024/03/26 02:46:00;;;;;;;4.38;1.90;;;;;;;8.43;56.74;99449.00;5248699;28;20132;-79
2024/03/26 02:48:32;;;;;;;4.43;1.63;;;;;;;8.39;56.73;99443.25;5246308;28;20044;-80
2024/03/26 02:51:04;;;;;;;6.35;2.00;;;;;;;8.35;57.54;99428.03;5245198;28;20029;-79
2024/03/26 02:53:36;;;;;;;5.38;2.10;;;;;;;8.36;59.94;99433.09;5254665;28;20052;-79
2024/03/26 02:56:07;;;;;;;4.25;1.92;;;;;;;8.36;59.03;99427.88;5255324;28;20029;-80
2024/03/26 02:58:39;;;;;;;4.72;1.60;;;;;;;8.34;57.16;99415.97;5257031;28;20123;-79
2024/03/26 03:01:13;;;;;;;7.00;2.15;;;;;;;8.30;57.66;99423.28;5256696;28;20047;-80
2024/03/26 03:03:45;;;;;;;4.85;2.13;;;;;;;8.28;57.56;99417.38;5257264;28;20040;-79
2024/03/26 03:06:17;;;;;;;6.10;1.83;;;;;;;8.20;57.34;99399.03;5257376;28;20024;-80
2024/03/26 03:08:49;;;;;;;5.72;1.65;;;;;;;8.23;57.75;99403.97;5235522;28;20059;-79
2024/03/26 03:11:20;;;;;;;7.53;1.80;;;;;;;8.23;57.43;99407.38;5256743;28;20029;-80
2024/03/26 03:13:53;;;;;;;4.80;2.05;;;;;;;8.16;57.71;99392.47;5254214;28;20047;-80
2024/03/26 03:16:24;;;;;;;6.68;2.20;;;;;;;8.19;57.91;99393.00;5237688;28;20669;-80
2024/03/26 03:18:56;;;;;;;5.65;2.28;;;;;;;8.16;59.53;99382.06;5254307;28;20136;-80
2024/03/26 03:21:28;;;;;;;8.48;2.10;;;;;;;8.14;57.60;99390.00;5255086;28;20036;-79
2024/03/26 03:24:00;;;;;;;3.88;1.70;;;;;;;8.12;59.16;99384.13;5255240;28;20490;-80
2024/03/26 03:26:32;;;;;;;5.75;2.00;;;;;;;8.10;58.57;99380.84;5236196;28;20048;-80
2024/03/26 03:29:04;;;;;;;5.75;2.08;;;;;;;8.02;59.78;99365.94;5252164;28;20028;-80
2024/03/26 03:31:36;;;;;;;4.53;2.13;;;;;;;8.07;58.54;99365.53;5258854;28;20025;-79
2024/03/26 03:34:08;;;;;;;5.97;2.00;;;;;;;8.02;58.89;99365.13;5257931;28;20867;-80
2024/03/26 03:36:40;;;;;;;7.00;1.88;;;;;;;7.95;59.26;99346.66;5250394;28;20454;-80
2024/03/26 03:39:11;;;;;;;5.97;2.20;;;;;;;8.06;58.20;99353.44;5249593;28;20090;-80
2024/03/26 03:41:44;;;;;;;6.07;2.55;;;;;;;7.95;60.14;99331.00;5248363;28;20053;-79
2024/03/26 03:44:16;;;;;;;4.35;1.55;;;;;;;7.93;59.91;99332.16;5249687;28;20221;-79
2024/03/26 03:46:48;;;;;;;5.82;1.88;;;;;;;7.90;60.14;99335.03;5229526;28;20045;-79
2024/03/26 03:49:20;;;;;;;8.00;2.17;;;;;;;7.94;60.36;99337.19;5248861;28;20039;-79
2024/03/26 03:51:52;;;;;;;4.75;1.83;;;;;;;7.93;59.38;99335.56;5249537;28;20032;-79
2024/03/26 03:54:24;;;;;;;6.97;2.33;;;;;;;7.96;59.24;99332.66;5249481;28;20037;-79
2024/03/26 03:56:56;;;;;;;6.72;2.00;;;;;;;7.92;58.75;99322.69;5248904;28;20155;-79
2024/03/26 03:59:28;;;;;;;6.18;1.85;;;;;;;7.87;59.94;99322.31;5247429;28;20036;-79
2024/03/26 04:02:00;;;;;;;6.47;2.25;;;;;;;7.89;60.14;99321.19;5248879;28;20053;-79
2024/03/26 04:04:32;;;;;;;5.82;2.38;;;;;;;7.81;59.61;99313.31;5249367;28;20029;-80
2024/03/26 04:07:04;;;;;;;5.22;2.00;;;;;;;7.89;60.09;99321.19;5248562;28;20033;-80
2024/03/26 04:09:36;;;;;;;3.10;1.75;;;;;;;7.86;59.80;99320.66;5247695;28;20029;-79
2024/03/26 04:12:08;;;;;;;7.47;2.33;;;;;;;7.88;59.28;99316.97;5249218;28;20490;-79
2024/03/26 04:14:39;;;;;;;3.53;1.75;;;;;;;7.84;60.30;99310.41;5249775;28;20071;-79
2024/03/26 04:17:11;;;;;;;6.10;2.30;;;;;;;7.80;59.94;99306.44;5248281;28;20078;-81
2024/03/26 04:19:44;;;;;;;5.80;2.22;;;;;;;7.90;60.07;99312.38;5246507;28;20033;-79
2024/03/26 04:22:16;;;;;;;4.15;1.98;;;;;;;7.86;59.51;99308.44;5248874;28;20040;-80
2024/03/26 04:24:48;;;;;;;3.67;1.75;;;;;;;7.79;60.36;99295.19;5248525;28;20322;-80
2024/03/26 04:27:20;;;;;;;4.38;1.65;;;;;;;7.83;60.26;99302.72;5246940;28;20037;-79
2024/03/26 04:29:52;;;;;;;7.70;2.22;;;;;;;7.76;60.35;99300.69;5244996;28;20084;-79
2024/03/26 04:32:25;;;;;;;6.85;1.85;;;;;;;7.80;60.84;99293.41;5249401;28;20029;-79
2024/03/26 04:34:56;;;;;;;5.25;2.30;;;;;;;7.82;60.41;99294.06;5246399;28;20040;-79
2024/03/26 04:37:28;;;;;;;4.03;2.03;;;;;;;7.78;60.24;99292.75;5229465;28;20557;-80
2024/03/26 04:40:00;;;;;;;7.75;1.98;;;;;;;7.78;60.44;99293.56;5247380;28;22150;-79
2024/03/26 04:42:32;;;;;;;4.30;1.58;;;;;;;7.76;61.54;99289.44;5248033;28;20700;-79
2024/03/26 04:45:05;;;;;;;4.55;1.70;;;;;;;7.82;59.90;99288.06;5228106;28;20049;-79
2024/03/26 04:47:36;;;;;;;5.28;1.83;;;;;;;7.78;60.26;99287.53;5247236;28;20046;-79
2024/03/26 04:50:09;;;;;;;9.02;2.55;;;;;;;7.76;60.26;99287.66;5246637;28;20037;-79
2024/03/26 04:52:41;;;;;;;4.68;2.47;;;;;;;7.80;59.80;99281.19;5247476;28;20103;-79
2024/03/26 04:55:13;;;;;;;4.72;1.90;;;;;;;7.75;59.98;99274.78;5244299;28;20501;-79
2024/03/26 04:57:45;;;;;;;6.65;3.10;;;;;;;7.74;60.18;99279.19;5246679;28;20064;-79
2024/03/26 05:00:17;;;;;;;4.53;1.92;;;;;;;7.74;61.71;99271.38;5246510;28;20029;-79
2024/03/26 05:02:49;;;;;;;4.47;1.80;;;;;;;7.71;61.17;99271.66;5246258;28;20045;-80
2024/03/26 05:05:21;;;;;;;5.18;2.15;;;;;;;7.69;60.98;99276.22;5246429;28;20028;-79
2024/03/26 05:07:53;;;;;;;4.50;2.05;;;;;;;7.69;61.49;99283.19;5244842;28;20470;-79
2024/03/26 05:10:24;;;;;;;4.47;1.88;;;;;;;7.67;61.03;99280.75;5251374;28;20041;-79
2024/03/26 05:12:56;;;;;;;6.75;2.50;;;;;;;7.63;61.48;99270.78;5259340;28;20025;-80
2024/03/26 05:15:28;;;;;;;5.57;2.00;;;;;;;7.62;61.94;99275.19;5252752;28;20036;-80
2024/03/26 05:18:00;;;;;;;6.05;1.95;;;;;;;7.62;61.90;99274.38;5252096;28;20037;-79
2024/03/26 05:20:32;;;;;;;6.05;2.10;;;;;;;7.56;62.56;99273.16;5254931;28;20036;-79
2024/03/26 05:23:04;;;;;;;3.80;2.10;;;;;;;7.60;61.78;99273.69;5254674;28;20423;-80
2024/03/26 05:25:36;;;;;;;6.35;2.30;;;;;;;7.59;61.76;99264.22;5254636;28;20037;-79
2024/03/26 05:28:08;;;;;;;3.70;2.20;;;;;;;7.51;63.37;99271.00;5256168;28;20039;-80
2024/03/26 05:30:40;;;;;;;3.65;1.95;;;;;;;7.53;62.53;99270.84;5255739;28;20595;-80
2024/03/26 05:33:12;;;;;;;5.70;2.17;;;;;;;7.56;61.93;99267.94;5251701;28;20017;-80
2024/03/26 05:35:44;;;;;;;5.35;2.13;;;;;;;7.56;61.89;99263.56;5234682;28;20063;-80
2024/03/26 05:38:16;;;;;;;5.75;2.25;;;;;;;7.57;62.94;99262.56;5257189;28;20084;-80
2024/03/26 05:40:48;;;;;;;4.53;2.05;;;;;;;7.55;62.32;99266.31;5262108;28;20100;-80
2024/03/26 05:43:20;;;;;;;5.00;2.28;;;;;;;7.52;62.76;99266.59;5252540;28;21661;-79
2024/03/26 05:45:52;;;;;;;6.93;2.38;;;;;;;7.54;62.41;99265.50;5249410;28;20037;-79
2024/03/26 05:48:23;;;;;;;5.30;2.63;;;;;;;7.58;61.92;99266.03;5246842;28;20047;-79
2024/03/26 05:50:55;;;;;;;4.85;2.45;;;;;;;7.59;62.17;99261.63;5246992;28;20032;-80
2024/03/26 05:53:27;;;;;;;5.75;2.40;;;;;;;7.60;61.69;99261.47;5246899;28;20509;-79
2024/03/26 05:55:59;;;;;;;4.53;2.42;;;;;;;7.57;62.57;99252.16;5228828;28;20068;-80
2024/03/26 05:58:31;;;;;;;4.75;1.90;;;;;;;7.59;62.39;99246.00;5247992;28;20033;-79
2024/03/26 06:01:03;;;;;;;4.72;2.17;;;;;;;7.64;62.22;99254.16;5248233;28;20051;-79
2024/03/26 06:03:36;;;;;;;5.82;2.50;;;;;;;7.70;62.13;99254.41;5246572;28;20041;-80
2024/03/26 06:06:08;;;;;;;6.03;2.40;;;;;;;7.71;62.65;99244.78;5246318;28;20025;-79
2024/03/26 06:08:40;;;;;;;6.60;2.20;;;;;;;7.66;61.42;99239.22;5249066;28;20417;-79
2024/03/26 06:11:12;;;;;;;4.82;2.38;;;;;;;7.70;62.01;99241.34;5230530;28;20107;-79
2024/03/26 06:13:44;;;;;;;6.70;2.35;;;;;;;7.73;62.08;99248.06;5246914;28;20039;-80
2024/03/26 06:16:16;;;;;;;5.65;2.58;;;;;;;7.79;61.91;99250.06;5250683;28;20035;-79
2024/03/26 06:18:47;;;;;;;5.72;2.40;;;;;;;7.83;61.99;99259.22;5248986;28;20036;-80
2024/03/26 06:21:19;;;;;;;7.13;2.30;;;;;;;7.86;61.84;99242.44;5252108;28;20432;-79
2024/03/26 06:23:51;;;;;;;6.00;2.20;;;;;;;7.90;61.66;99244.59;5251643;28;20044;-79
2024/03/26 06:26:23;;;;;;;5.63;2.25;;;;;;;7.94;61.12;99252.94;5251187;28;20074;-79
2024/03/26 06:28:55;;;;;;;7.53;2.60;;;;;;;7.98;61.08;99254.25;5250268;28;20051;-79
2024/03/26 06:31:27;;;;;;;5.13;2.22;;;;;;;8.03;60.44;99250.25;5249352;28;20277;-79
2024/03/26 06:33:59;;;;;;;6.07;2.50;;;;;;;8.07;62.35;99250.75;5251191;28;20040;-79
2024/03/26 06:36:31;;;;;;;8.95;2.78;;;;;;;8.10;61.55;99255.66;5250331;28;20451;-79
2024/03/26 06:39:04;;;;;;;6.78;2.45;;;;;;;8.10;61.08;99252.22;5251651;28;20513;-79
2024/03/26 06:41:36;;;;;;;5.07;2.13;;;;;;;8.19;61.76;99256.53;5249785;28;20070;-79
2024/03/26 06:44:07;;;;;;;7.57;2.83;;;;;;;8.21;60.72;99249.34;5232037;28;20075;-79
2024/03/26 06:46:40;;;;;;;6.93;2.58;;;;;;;8.28;60.28;99250.38;5251078;28;20505;-79
2024/03/26 06:49:12;;;;;;;6.15;3.15;;;;;;;8.28;59.89;99248.59;5250450;28;20043;-79
2024/03/26 06:51:44;;;;;;;6.50;3.20;;;;;;;8.30;59.48;99243.22;5250313;28;20029;-79
2024/03/26 06:54:17;;;;;;;5.63;2.50;;;;;;;8.30;59.96;99235.41;5246086;28;20033;-79
2024/03/26 06:56:49;;;;;;;5.55;2.58;;;;;;;8.38;59.40;99240.69;5249843;28;20037;-79
2024/03/26 06:59:20;;;;;;;5.75;2.50;;;;;;;8.45;60.09;99240.91;5249560;28;20475;-79
2024/03/26 07:01:53;;;;;;;7.95;2.63;;;;;;;8.49;59.44;99235.19;5244465;28;20033;-79
2024/03/26 07:04:25;;;;;;;6.97;2.47;;;;;;;8.58;59.83;99238.66;5248190;28;20277;-79
2024/03/26 07:06:57;;;;;;;5.63;2.70;;;;;;;8.55;58.79;99223.31;5249034;28;20494;-79
2024/03/26 07:09:30;;;;;;;6.18;2.50;;;;;;;8.67;58.46;99242.13;5249143;28;20020;-80
2024/03/26 07:12:02;;;;;;;6.15;2.45;;;;;;;8.72;60.14;99237.25;5248051;28;20481;-80
2024/03/26 07:14:34;;;;;;;8.63;2.65;;;;;;;8.81;58.55;99236.31;5249835;28;20032;-80
2024/03/26 07:17:06;;;;;;;6.88;3.10;;;;;;;8.86;57.40;99230.59;5232708;28;20041;-79
2024/03/26 07:19:39;;;;;;;;;;;;;;;9.53;56.87;99227.94;5253206;28;20519;-80
2024/03/26 07:22:11;;;;;;;5.05;2.25;;;;;;;9.02;57.83;99225.44;5250611;28;19938;-80
2024/03/26 07:24:43;;;;;;;5.82;2.72;;;;;;;8.99;57.35;99216.13;5252296;28;20056;-79
2024/03/26 07:27:15;;;;;;;6.90;2.50;;;;;;;9.04;58.17;99207.78;5252626;28;20036;-80
2024/03/26 07:29:47;;;;;;;4.78;2.13;;;;;;;9.10;57.97;99208.97;5251253;28;20033;-80
2024/03/26 07:32:19;;;;;;;3.95;2.33;;;;;;;9.20;57.65;99197.34;5253593;28;20076;-79
2024/03/26 07:34:51;;;;;;;6.03;2.20;;;;;;;9.16;56.60;99192.63;5253032;28;20041;-79
2024/03/26 07:37:23;;;;;;;7.18;2.63;;;;;;;9.26;56.80;99206.38;5253552;28;20028;-80
2024/03/26 07:39:54;;;;;;;4.13;2.40;;;;;;;9.33;56.81;99202.13;5252355;28;20040;-80
2024/03/26 07:42:27;;;;;;;6.10;3.05;;;;;;;9.41;57.96;99202.13;5250863;28;20029;-79
2024/03/26 07:44:59;;;;;;;5.23;2.70;;;;;;;9.54;57.71;99198.19;5259263;28;20049;-79
2024/03/26 07:47:31;;;;;;;6.40;2.75;;;;;;;9.56;57.16;99186.59;5265891;28;20303;-79
2024/03/26 07:50:04;;;;;;;4.47;2.42;;;;;;;9.70;56.97;99198.22;5258710;28;20069;-80
2024/03/26 07:52:36;;;;;;;5.43;2.13;;;;;;;9.72;56.88;99191.00;5246565;28;20025;-80
2024/03/26 07:55:08;;;;;;;4.97;2.25;;;;;;;9.81;56.02;99194.41;5248999;28;20768;-80
2024/03/26 07:57:40;;;;;;;5.22;2.40;;;;;;;9.81;56.09;99191.81;5247956;28;20478;-80
2024/03/26 08:00:12;;;;;;;5.80;2.45;;;;;;;9.83;55.93;99187.25;5248360;28;20039;-79
2024/03/26 08:02:44;;;;;;;5.63;2.40;;;;;;;9.83;55.25;99168.94;5246232;28;20033;-79
2024/03/26 08:05:16;;;;;;;6.15;2.83;;;;;;;9.95;56.65;99181.47;5248699;28;20048;-79
2024/03/26 08:07:48;;;;;;;5.07;2.83;;;;;;;9.99;54.93;99189.81;5247540;28;20141;-79
2024/03/26 08:10:20;;;;;;;6.20;2.47;;;;;;;10.05;55.47;99185.72;5246690;28;20028;-79
2024/03/26 08:12:52;;;;;;;5.25;2.70;;;;;;;10.06;54.89;99182.13;5245882;28;20028;-80
2024/03/26 08:15:24;;;;;;;5.97;2.80;;;;;;;10.12;54.35;99178.84;5248350;28;20037;-80
2024/03/26 08:17:56;;;;;;;7.07;2.53;;;;;;;10.12;54.71;99171.00;5248245;28;20341;-80
2024/03/26 08:20:30;;;;;;;5.35;2.40;;;;;;;10.17;54.76;99179.97;5247409;28;20367;-79
2024/03/26 08:23:02;;;;;;;5.38;2.42;;;;;;;10.22;55.25;99174.22;5229329;28;20040;-80
2024/03/26 08:25:34;;;;;;;5.75;2.55;;;;;;;10.26;55.14;99167.69;5248407;28;20028;-80
2024/03/26 08:28:06;;;;;;;5.45;2.47;;;;;;;10.32;55.61;99171.44;5228113;28;20059;-79
2024/03/26 08:30:38;;;;;;;4.18;2.10;;;;;;;10.39;55.91;99160.13;5247893;28;20033;-80
2024/03/26 08:33:10;;;;;;;4.85;2.25;;;;;;;10.42;54.16;99164.22;5247787;28;20429;-79
2024/03/26 08:35:42;;;;;;;6.28;2.60;;;;;;;10.51;54.17;99167.59;5248046;28;20036;-79
2024/03/26 08:38:14;;;;;;;5.68;2.72;;;;;;;10.46;54.71;99148.00;5246799;28;20411;-80
2024/03/26 08:40:46;;;;;;;7.30;2.50;;;;;;;10.53;54.00;99152.53;5244784;28;20040;-80
2024/03/26 08:43:18;;;;;;;3.42;2.10;;;;;;;10.66;54.17;99161.47;5246953;28;20512;-80
2024/03/26 08:45:50;;;;;;;5.88;2.92;;;;;;;10.72;55.94;99157.38;5247064;28;20418;-80
2024/03/26 08:48:22;;;;;;;4.60;2.40;;;;;;;10.73;53.97;99148.50;5247212;28;20040;-79
2024/03/26 08:50:53;;;;;;;5.68;2.50;;;;;;;10.74;52.97;99137.03;5248508;28;20032;-80
2024/03/26 08:53:25;;;;;;;5.95;2.55;;;;;;;10.86;53.94;99140.88;5252646;28;20067;-80
2024/03/26 08:55:57;;;;;;;3.70;2.13;;;;;;;10.89;53.61;99135.31;5249787;28;20033;-80
2024/03/26 08:58:29;;;;;;;9.23;2.97;;;;;;;10.94;53.56;99124.28;5249186;28;20682;-79
2024/03/26 09:01:01;;;;;;;6.90;2.55;;;;;;;11.01;52.47;99137.50;5249874;28;20021;-80
2024/03/26 09:03:33;;;;;;;7.18;2.40;;;;;;;11.06;53.51;99132.56;5230882;28;20041;-80
2024/03/26 09:06:05;;;;;;;7.32;2.67;;;;;;;11.10;53.37;99136.44;5250544;28;20039;-81
2024/03/26 09:08:37;;;;;;;5.88;2.33;;;;;;;11.14;52.77;99125.47;5249783;28;20082;-80
2024/03/26 09:11:09;;;;;;;4.57;2.40;;;;;;;11.22;52.06;99137.69;5250251;28;20024;-80
2024/03/26 09:13:41;;;;;;;4.53;2.08;;;;;;;11.29;52.33;99135.16;5250641;28;20029;-80
2024/03/26 09:16:13;;;;;;;13.17;2.53;;;;;;;11.34;52.75;99131.03;5250998;28;20033;-80
2024/03/26 09:18:45;;;;;;;5.60;2.22;;;;;;;11.36;51.83;99130.84;5249981;28;20043;-80
2024/03/26 09:21:17;;;;;;;4.32;2.00;;;;;;;11.40;52.84;99119.00;5249946;28;20025;-80
2024/03/26 09:23:49;;;;;;;3.78;2.30;;;;;;;11.47;51.79;99129.59;5251384;28;20413;-80
2024/03/26 09:26:21;;;;;;;3.97;2.40;;;;;;;11.47;52.50;99114.69;5251333;28;20025;-80
2024/03/26 09:28:53;;;;;;;5.90;2.28;;;;;;;11.52;52.54;99116.78;5248767;28;20035;-80
2024/03/26 09:31:24;;;;;;;7.18;2.20;;;;;;;11.52;51.97;99111.56;5247506;28;20063;-80
2024/03/26 09:33:56;;;;;;;4.80;2.20;;;;;;;11.58;52.15;99121.31;5246517;28;20062;-80
2024/03/26 09:36:28;;;;;;;4.22;2.20;;;;;;;11.56;51.57;99104.97;5249479;28;20035;-80
2024/03/26 09:39:00;;;;;;;7.43;2.80;;;;;;;11.60;52.28;99109.66;5249640;28;20036;-80
2024/03/26 09:41:36;;;;;;;5.18;2.50;;;;;;;11.68;51.92;99100.88;5248214;28;20101;-80
2024/03/26 09:44:08;;;;;;;4.22;1.98;;;;;;;11.65;51.84;99101.25;5248374;28;20048;-80
2024/03/26 09:46:42;;;;;;;4.63;2.15;;;;;;;11.74;51.66;99097.53;5250706;28;20029;-80
2024/03/26 09:49:14;;;;;;;5.03;2.15;;;;;;;11.73;51.94;99093.28;5250100;28;20146;-81
2024/03/26 09:51:48;;;;;;;4.80;2.45;;;;;;;11.81;52.15;99095.00;5251583;28;20041;-80
2024/03/26 09:54:20;;;;;;;4.43;2.25;;;;;;;11.80;52.10;99093.38;5259781;28;20391;-80
2024/03/26 09:56:53;;;;;;;4.80;2.17;;;;;;;11.86;52.11;99090.88;5263153;28;20042;-80
2024/03/26 09:59:24;;;;;;;7.47;2.40;;;;;;;11.87;51.34;99089.06;5247788;28;20029;-80
2024/03/26 10:02:06;;;;;;;4.57;2.30;;;;;;;11.97;51.59;99076.50;5246696;28;20063;-80
2024/03/26 10:04:38;;;;;;;4.95;2.28;;;;;;;11.93;51.50;99083.09;5244537;28;20281;-80
2024/03/26 10:07:10;;;;;;;4.25;2.75;;;;;;;12.02;51.51;99089.06;5244867;28;20047;-79
2024/03/26 10:09:43;;;;;;;6.03;2.60;;;;;;;12.05;53.14;99083.47;5245942;28;20075;-80
2024/03/26 10:12:15;;;;;;;6.30;2.30;;;;;;;12.12;51.58;99081.72;5246441;28;20024;-80
2024/03/26 10:14:46;;;;;;;6.18;3.10;;;;;;;12.12;51.20;99087.81;5244136;28;20037;-80
2024/03/26 10:17:19;;;;;;;5.75;2.38;;;;;;;12.27;52.79;99095.63;5246527;28;20411;-80
2024/03/26 10:19:52;;;;;;;5.97;2.70;;;;;;;12.38;52.61;99095.16;5242314;28;20048;-80
2024/03/26 10:22:23;;;;;;;6.53;2.42;;;;;;;12.46;52.33;99093.41;5246146;28;20021;-80
2024/03/26 10:24:55;;;;;;;7.80;2.80;;;;;;;12.54;51.77;99096.78;5245076;28;20036;-80
2024/03/26 10:27:27;;;;;;;7.82;3.05;;;;;;;12.57;52.18;99085.88;5246401;28;20040;-79
2024/03/26 10:29:59;;;;;;;4.90;2.50;;;;;;;12.58;50.89;99084.06;5245464;28;20407;-80
2024/03/26 10:32:31;;;;;;;4.47;2.30;;;;;;;12.59;53.91;99077.81;5247990;28;20031;-80
2024/03/26 10:35:06;;;;;;;6.07;2.60;;;;;;;12.53;52.20;99058.34;5245244;28;20040;-80
2024/03/26 10:37:38;;;;;;;4.00;2.42;;;;;;;12.72;52.00;99061.38;5245502;28;20060;-80
2024/03/26 10:40:18;;;;;;;6.47;2.22;;;;;;;12.87;51.66;99068.19;5246546;28;20121;-80
2024/03/26 10:42:54;;;;;;;5.45;2.83;;;;;;;12.97;52.40;99054.72;5244660;28;20033;-80
2024/03/26 10:45:27;;;;;;;6.72;2.67;;;;;;;12.98;52.75;99061.59;5246497;28;20053;-80
2024/03/26 10:48:00;;;;;;;5.20;2.33;;;;;;;13.06;51.58;99042.25;5246365;28;20615;-80
2024/03/26 10:50:33;;;;;;;6.38;2.35;;;;;;;13.11;51.74;99047.78;5245324;28;20029;-80
2024/03/26 10:53:05;;;;;;;6.95;2.65;;;;;;;13.18;52.62;99048.59;5249192;28;20189;-80
2024/03/26 10:55:37;;;;;;;4.22;2.28;;;;;;;13.23;51.13;99041.00;5252214;28;20500;-80
2024/03/26 10:58:09;;;;;;;9.23;2.55;;;;;;;13.24;51.65;99039.19;5252399;28;20040;-80
2024/03/26 11:00:44;;;;;;;3.83;2.22;;;;;;;13.46;51.71;99037.31;5252996;28;20420;-80
2024/03/26 11:03:17;;;;;;;5.32;2.60;;;;;;;13.45;51.57;99022.53;5254892;28;20494;-80
2024/03/26 11:05:49;;;;;;;4.28;1.77;;;;;;;13.57;51.29;99027.06;5253197;28;20043;-81
2024/03/26 11:08:21;;;;;;;5.22;2.13;;;;;;;13.67;50.48;99028.53;5254117;28;20028;-80
2024/03/26 11:11:01;;;;;;;5.30;2.40;;;;;;;13.82;51.91;99014.22;5254466;28;20036;-80
2024/03/26 11:13:36;;;;;;;3.58;2.00;;;;;;;13.80;50.38;99018.06;5254013;28;20386;-80
2024/03/26 11:16:08;;;;;;;6.28;2.35;;;;;;;13.76;50.54;99016.84;5255636;28;20576;-81
2024/03/26 11:18:43;;;;;;;7.32;2.17;;;;;;;13.97;51.13;99018.53;5254911;28;20021;-80
2024/03/26 11:21:15;;;;;;;5.75;2.45;;;;;;;13.81;50.19;99017.06;5254427;28;20476;-81
2024/03/26 11:23:47;;;;;;;4.15;2.10;;;;;;;13.91;50.69;99014.06;5252500;28;20340;-81
2024/03/26 11:26:25;;;;;;;4.45;2.13;;;;;;;14.14;51.33;99011.13;5255300;28;20047;-81
2024/03/26 11:28:58;;;;;;;5.60;2.88;;;;;;;14.06;51.24;99012.09;5255216;28;20080;-81
2024/03/26 11:31:32;;;;;;;5.78;2.33;;;;;;;14.12;50.85;99011.31;5255060;28;20040;-80
2024/03/26 11:34:04;;;;;;;6.55;2.38;;;;;;;13.96;51.51;98999.31;5252707;28;20021;-81
2024/03/26 11:36:36;;;;;;;6.63;1.90;;;;;;;13.95;50.90;98995.06;5252188;28;20039;-81
2024/03/26 11:39:09;;;;;;;6.63;2.25;;;;;;;13.97;51.98;98994.84;5252503;28;20032;-81
2024/03/26 11:41:41;;;;;;;4.97;2.20;;;;;;;14.08;50.86;98994.28;5255122;28;20039;-81
2024/03/26 11:44:13;;;;;;;7.63;2.70;;;;;;;14.06;50.89;98980.50;5255456;28;20410;-80
2024/03/26 11:46:46;;;;;;;3.35;2.10;;;;;;;14.17;50.90;98984.38;5256962;28;20040;-81
2024/03/26 11:49:18;;;;;;;5.13;2.33;;;;;;;14.16;50.90;98986.19;5255706;28;20025;-81
2024/03/26 11:51:50;;;;;;;5.32;1.92;;;;;;;14.20;51.10;98981.34;5256116;28;20032;-81
2024/03/26 11:54:22;;;;;;;6.82;2.47;;;;;;;14.29;50.91;98980.97;5257712;28;20317;-81
2024/03/26 11:56:55;;;;;;;5.32;2.13;;;;;;;14.35;50.96;98977.50;5255028;28;20374;-81
2024/03/26 11:59:27;;;;;;;3.70;1.88;;;;;;;14.34;50.95;98957.47;5259999;28;20664;-81
2024/03/26 12:01:59;;;;;;;3.70;1.80;;;;;;;14.46;51.33;98975.31;5265694;28;20017;-80